EST,Max TemperatureF,Mean TemperatureF,Min TemperatureF,Max Dew PointF,MeanDew PointF,Min DewpointF,Max Humidity, Mean Humidity, Min Humidity, Max Sea Level PressureIn, Mean Sea Level PressureIn, Min Sea Level PressureIn, Max VisibilityMiles, Mean VisibilityMiles, Min VisibilityMiles, Max Wind SpeedMPH, Mean Wind SpeedMPH, Max Gust SpeedMPH,PrecipitationIn, CloudCover, Events, WindDirDegrees
2011-1-1,80,76,71,63,61,57,73,60,47,30.01,29.97,29.92,6,6,6,10,4,,0.00,5,,292
2011-1-2,80,74,69,63,61,59,73,62,48,30.04,29.97,29.92,6,6,6,10,6,,0.00,3,Rain,334
2011-1-3,82,76,71,63,61,55,73,60,48,29.98,29.94,29.89,6,6,6,10,5,,0.00,1,,340
2011-1-4,80,76,71,63,60,55,69,58,42,30.01,29.95,29.89,6,6,6,10,4,,0.00,2,,242
2011-1-5,80,74,69,63,59,54,69,58,39,30.01,29.95,29.89,6,6,6,8,6,,0.00,1,,321
2011-1-6,80,76,71,66,62,57,73,62,45,29.95,29.89,29.83,6,6,6,10,5,,0.00,1,,284
2011-1-7,82,76,71,66,64,63,78,67,51,29.92,29.86,29.80,6,6,6,10,6,,0.00,2,,11
2011-1-8,80,76,71,66,63,61,73,65,51,29.95,29.87,29.83,6,6,6,10,5,,0.00,5,,24
2011-1-9,82,76,71,68,64,59,73,65,48,29.98,29.91,29.86,6,6,6,15,4,,0.00,5,,354
2011-1-10,86,80,75,68,66,64,74,66,51,30.01,29.95,29.89,6,6,6,24,9,,0.00,6,,33
2011-1-11,82,78,73,68,66,63,78,68,54,30.04,29.99,29.95,6,6,6,21,7,,0.00,6,,11
2011-1-12,82,76,71,68,66,63,78,69,51,30.04,29.97,29.92,6,6,6,13,5,,0.00,4,,268
2011-1-13,82,78,75,68,65,63,74,63,54,30.01,29.95,29.89,6,6,6,8,5,,0.00,3,,265
2011-1-14,82,78,75,66,64,63,73,64,51,30.01,29.94,29.89,6,6,6,12,6,,0.00,5,,355
2011-1-15,82,78,73,68,66,63,78,68,54,29.98,29.92,29.86,6,6,6,12,5,,0.00,2,Rain,357
2011-1-16,82,78,73,68,66,63,78,69,57,29.95,29.91,29.86,6,6,6,18,7,,0.00,2,,356
2011-1-17,82,78,73,68,65,64,78,66,54,29.98,29.91,29.86,6,6,6,21,8,,0.00,2,,78
2011-1-18,82,78,75,68,65,63,74,64,54,30.01,29.94,29.86,6,6,6,24,11,,0.00,4,,68
2011-1-19,82,78,75,68,66,63,74,66,51,30.01,29.96,29.92,6,6,6,23,7,,0.00,5,Thunderstorm,5
2011-1-20,84,78,73,68,65,63,78,65,51,29.98,29.93,29.86,6,6,6,13,6,,0.00,2,,286
2011-1-21,80,76,73,68,64,61,78,63,54,29.92,29.87,29.83,6,6,6,18,7,,0.00,1,,113
2011-1-22,80,76,73,68,65,61,83,68,61,29.92,29.86,29.83,6,6,5,14,7,,0.00,5,Rain,115
2011-1-23,82,78,73,68,66,63,83,68,58,29.95,29.90,29.86,6,6,6,18,7,,0.00,4,Rain,50
2011-1-24,84,78,73,68,66,63,78,65,51,29.98,29.94,29.89,6,6,6,22,8,,0.00,2,,343
2011-1-25,82,78,73,72,65,63,78,64,51,29.98,29.94,29.86,6,6,6,25,9,,0.00,1,Rain,81
2011-1-26,84,80,75,68,63,57,74,59,40,30.01,29.94,29.89,6,6,6,22,12,,0.00,1,,103
2011-1-27,80,76,71,66,62,57,69,60,47,29.98,29.95,29.89,6,6,6,16,6,,0.00,5,,317
2011-1-28,82,78,73,66,64,59,73,64,45,30.04,29.97,29.92,6,6,6,24,8,,0.00,3,,105
2011-1-29,80,78,75,66,65,63,73,66,54,30.06,30.02,29.98,6,6,6,15,6,,0.00,3,,52
2011-1-30,80,76,71,68,65,63,78,68,57,30.09,30.02,29.98,6,6,6,18,7,,0.00,4,Rain,50
2011-1-31,80,76,73,68,65,63,78,67,57,30.06,30.01,29.95,6,6,6,17,7,,0.00,3,,359
2011-2-1,82,76,71,66,63,61,78,62,54,30.04,29.99,29.95,6,6,6,29,8,,0.00,2,,29
2011-2-2,82,76,71,64,62,59,69,59,48,30.04,30.01,29.95,6,6,6,23,8,,0.00,1,,25
2011-2-3,80,76,73,68,64,61,69,64,57,30.04,30.00,29.95,6,6,6,21,7,,0.00,2,,17
2011-2-4,82,78,73,70,63,59,74,63,48,30.04,29.97,29.89,6,6,6,21,7,,0.00,2,,221
2011-2-5,80,76,73,66,62,57,78,62,45,29.98,29.94,29.89,6,6,6,13,6,,0.00,4,,339
2011-2-6,84,78,71,66,62,59,69,59,42,30.01,29.94,29.89,6,6,6,20,8,,0.00,1,,356
2011-2-7,84,78,73,68,65,63,78,67,51,30.04,29.99,29.92,6,6,6,21,8,,0.00,2,Rain,70
2011-2-8,82,78,73,68,65,63,78,67,54,30.06,30.00,29.95,6,6,6,20,6,,0.00,2,Rain,10
2011-2-9,80,76,73,66,64,61,73,65,51,30.01,29.96,29.92,6,6,6,21,8,,0.00,3,,66
2011-2-10,82,78,73,64,63,61,69,61,51,29.98,29.94,29.89,6,6,6,22,10,,0.00,1,Rain,111
2011-2-11,84,78,73,66,62,59,69,59,48,30.01,29.97,29.92,6,6,5,22,6,,0.00,1,,300
2011-2-12,82,78,73,64,61,57,69,56,42,30.06,30.00,29.95,6,6,6,13,5,,0.00,2,,315
2011-2-13,82,78,75,66,63,61,69,61,48,30.06,30.00,29.95,6,6,6,9,6,,0.00,4,,331
2011-2-14,80,78,75,68,65,64,74,68,58,30.04,30.00,29.95,6,6,6,9,4,,0.00,4,Rain,359
2011-2-15,82,78,73,68,65,63,83,68,51,30.04,29.98,29.92,6,6,2,10,4,,0.00,3,Rain-Thunderstorm,351
2011-2-16,80,76,73,68,66,64,78,71,58,30.04,29.99,29.95,6,6,6,9,4,,0.00,3,Thunderstorm,359
2011-2-17,78,76,73,66,66,63,78,70,57,30.04,30.00,29.95,6,6,6,16,6,,0.00,3,Rain-Thunderstorm,18
2011-2-18,82,78,73,68,65,57,83,66,50,30.04,29.97,29.92,6,6,6,10,3,,0.00,2,,282
2011-2-19,82,78,73,64,62,59,73,60,48,30.01,29.94,29.89,6,6,6,9,4,,0.00,2,,259
2011-2-20,82,76,71,63,61,55,73,58,45,30.01,29.95,29.89,6,6,6,9,4,,0.00,2,,241
2011-2-21,82,78,73,64,62,57,69,60,48,30.01,29.97,29.92,6,6,6,20,6,,0.00,2,,224
2011-2-22,82,78,73,64,63,59,69,60,51,30.04,29.99,29.95,6,6,6,22,6,,0.00,2,,355
2011-2-23,82,78,73,66,62,55,69,58,39,30.01,29.96,29.89,6,6,6,15,8,,0.00,1,,20
2011-2-24,84,78,73,64,60,55,65,55,45,30.04,29.97,29.92,6,6,6,63,8,,0.00,1,,360
2011-2-25,82,78,73,64,62,57,69,59,48,30.04,30.00,29.98,6,6,6,26,10,,0.00,2,,86
2011-2-26,84,78,71,64,60,54,65,56,42,30.04,29.99,29.92,6,6,6,28,11,,0.00,2,,98
2011-2-27,80,76,73,64,62,59,69,60,48,30.04,29.99,29.92,6,6,6,23,7,,0.00,2,,71
2011-2-28,82,78,73,63,62,61,69,59,48,30.06,30.00,29.95,6,6,6,23,9,,0.00,1,,88
2011-3-1,80,76,71,66,61,57,65,59,53,30.04,29.99,29.95,6,6,6,130,10,,0.00,2,Rain,99
2011-3-2,80,76,71,64,60,57,69,58,48,30.01,29.96,29.89,6,6,6,16,6,,0.00,2,,169
2011-3-3,80,76,73,66,63,61,78,64,51,29.98,29.94,29.89,6,6,6,16,6,,0.00,2,Rain,342
2011-3-4,78,76,73,64,61,57,69,62,47,30.01,29.95,29.89,6,6,6,16,6,,0.00,4,Rain,339
2011-3-5,82,78,73,64,62,59,73,62,51,30.01,29.95,29.89,6,6,6,20,6,,0.00,2,,8
2011-3-6,82,78,73,66,63,61,73,62,51,30.01,29.95,29.89,6,6,6,16,5,,0.00,1,,131
2011-3-7,82,78,73,66,64,63,69,65,54,29.98,29.93,29.89,6,6,6,13,6,,0.00,1,,43
2011-3-8,86,80,73,64,63,59,73,60,45,30.01,29.96,29.92,6,6,6,12,4,,0.00,2,,274
2011-3-9,84,78,73,66,63,59,69,61,51,30.04,29.99,29.95,6,6,6,20,5,,0.00,2,Rain-Thunderstorm,239
2011-3-10,80,76,71,66,62,59,73,63,51,30.04,29.99,29.92,6,6,6,12,6,,0.00,2,Thunderstorm,268
2011-3-11,80,74,69,66,62,57,83,64,51,31.19,30.04,29.95,6,6,3,14,6,,0.00,3,Rain-Thunderstorm,300
2011-3-12,82,76,71,64,61,55,78,59,47,30.06,30.01,29.95,6,6,6,12,5,,0.00,2,,191
2011-3-13,80,76,71,64,61,57,78,60,45,30.06,30.01,29.98,6,6,3,10,4,,0.00,2,Rain,299
2011-3-14,82,78,73,64,62,57,73,61,45,30.04,30.00,29.92,6,6,6,14,4,,0.00,2,,267
2011-3-15,80,76,71,66,62,57,73,64,51,30.06,30.02,29.98,6,6,6,23,6,,0.00,3,,245
2011-3-16,80,74,69,66,64,61,83,71,51,30.09,30.05,30.01,6,6,6,25,6,,0.00,5,Rain,20
2011-3-17,82,76,71,66,62,54,78,61,42,30.09,30.03,29.95,6,6,6,15,5,,0.00,2,Rain,279
2011-3-18,82,76,71,66,61,57,78,58,47,30.06,30.00,29.95,6,6,6,13,4,,0.00,2,,255
2011-3-19,82,78,73,64,60,52,69,54,41,30.04,29.98,29.92,6,6,6,10,4,,0.00,1,,203
2011-3-20,80,76,71,61,56,50,64,50,39,30.04,29.98,29.92,6,6,6,12,5,,0.00,1,,268
2011-3-21,80,76,71,61,55,50,60,47,39,30.01,29.97,29.92,6,6,6,14,6,,0.00,3,,316
2011-3-22,80,76,73,64,58,52,61,52,39,30.01,29.95,29.89,6,6,6,17,6,,0.00,1,Rain,203
2011-3-23,80,76,71,64,62,57,73,61,53,29.98,29.94,29.89,6,6,6,23,9,,0.00,3,,74
2011-3-24,82,76,71,64,62,59,73,59,51,30.01,29.95,29.89,6,6,6,22,7,,0.00,2,,120
2011-3-25,84,78,73,66,61,48,73,57,38,29.98,29.93,29.86,6,6,6,22,7,,0.00,1,,76
2011-3-26,84,78,73,68,65,61,73,63,48,29.95,29.90,29.83,6,6,6,29,10,,0.00,1,,75
2011-3-27,82,78,75,68,66,64,73,64,58,29.95,29.90,29.86,6,6,6,29,13,,0.00,1,,97
2011-3-28,84,80,75,68,65,61,69,63,51,29.98,29.92,29.86,6,6,6,26,16,,0.00,1,,110
2011-3-29,82,78,75,68,66,63,74,65,51,30.01,29.95,29.89,6,6,6,23,11,,0.00,1,,98
2011-3-30,82,78,73,66,64,61,73,62,51,30.01,29.93,29.83,6,6,6,24,7,,0.00,1,,127
2011-3-31,84,80,75,70,66,61,78,65,55,29.95,29.89,29.83,6,6,6,23,8,,0.00,2,,88
2011-4-1,84,80,77,70,68,64,74,66,58,29.95,29.89,29.83,6,6,6,24,16,,0.00,4,,116
2011-4-2,82,78,75,68,65,63,69,63,57,29.98,29.93,29.86,6,6,6,25,11,,0.00,5,,94
2011-4-3,84,80,75,68,67,64,78,68,58,30.01,29.95,29.89,6,6,6,17,7,,0.00,2,,201
2011-4-4,82,78,75,68,65,59,78,64,48,30.01,29.95,29.92,6,6,6,26,9,,0.00,5,Rain,92
2011-4-5,84,80,77,66,64,61,69,58,51,30.01,29.95,29.89,6,6,6,25,14,,0.00,1,,113
2011-4-6,82,78,75,68,64,59,73,61,54,30.04,29.99,29.92,6,6,6,22,9,,0.00,2,,72
2011-4-7,80,76,73,66,65,63,78,67,54,30.01,29.97,29.92,6,6,2,13,6,,0.00,4,Rain,2
2011-4-8,82,78,73,66,64,59,73,62,48,30.01,29.96,29.92,6,6,6,25,7,,0.00,3,,11
2011-4-9,82,78,73,66,63,59,69,60,45,30.04,29.98,29.92,6,6,6,23,8,,0.00,2,,20
2011-4-10,82,78,73,66,64,59,73,61,48,30.04,29.99,29.92,6,6,6,15,7,,0.00,1,,159
2011-4-11,82,78,75,64,64,61,69,60,51,30.01,29.97,29.89,6,6,6,15,5,,0.00,1,,191
2011-4-12,82,78,75,64,62,59,65,58,45,29.98,29.96,29.92,6,6,6,13,5,,0.00,3,,58
2011-4-13,80,76,73,64,62,59,69,60,51,30.01,29.96,29.92,6,6,6,9,4,,0.00,2,,2
2011-4-14,82,78,73,68,64,59,69,61,48,29.98,29.92,29.86,6,6,6,15,5,,0.00,2,Rain,48
2011-4-15,84,80,75,68,65,61,69,64,51,29.95,29.91,29.86,6,6,6,22,6,,0.00,2,,56
2011-4-16,82,78,75,68,65,63,73,65,54,29.98,29.92,29.89,6,6,6,13,5,,0.00,4,Rain,348
2011-4-17,84,78,73,68,65,63,74,64,51,29.98,29.93,29.86,6,6,6,13,6,,0.00,3,,210
2011-4-18,86,80,75,68,64,63,78,64,48,29.98,29.94,29.89,6,6,6,15,6,,0.00,3,Rain,347
2011-4-19,84,78,73,66,63,59,73,60,45,30.01,29.96,29.92,6,6,6,21,7,,0.00,2,,92
2011-4-20,84,80,75,64,63,61,69,57,45,29.98,29.94,29.86,6,6,6,9,5,,0.00,1,,265
2011-4-21,82,78,75,64,63,61,69,57,51,29.98,29.91,29.86,6,6,6,12,5,,0.00,3,,238
2011-4-22,84,78,73,64,62,59,69,56,45,29.98,29.92,29.86,6,6,6,17,5,,0.00,2,,200
2011-4-23,84,80,75,63,60,57,65,52,42,30.01,29.95,29.89,6,6,6,10,6,,0.00,1,,233
2011-4-24,84,80,75,66,62,59,69,57,45,30.01,29.94,29.89,6,6,6,17,7,,0.00,1,,32
2011-4-25,82,78,75,68,64,61,65,59,51,29.98,29.91,29.86,6,6,6,21,9,,0.00,1,,111
2011-4-26,84,80,77,66,64,63,65,59,54,29.98,29.90,29.83,6,6,6,26,14,,0.00,2,,121
2011-4-27,84,80,77,68,65,61,69,60,51,30.01,29.92,29.86,6,6,6,25,14,,0.00,3,,120
2011-4-28,84,80,77,70,67,64,74,65,54,30.01,29.96,29.92,6,6,6,21,10,,0.00,2,Rain,108
2011-4-29,82,78,75,70,68,64,78,68,54,29.98,29.93,29.86,6,6,6,18,7,,0.00,3,,111
2011-4-30,82,78,75,68,66,63,78,65,57,29.92,29.89,29.83,6,6,6,15,4,,0.00,2,Rain,112
2011-5-1,82,78,75,68,66,64,74,64,54,29.92,29.87,29.83,6,6,6,15,5,,0.00,2,Rain-Thunderstorm,337
2011-5-2,87,81,75,70,65,61,73,60,45,29.92,29.89,29.86,6,6,6,30,8,,0.00,3,Thunderstorm,24
2011-5-3,87,82,77,70,66,63,70,63,48,29.98,29.92,29.86,6,6,6,21,6,,0.00,2,Rain-Thunderstorm,308
2011-5-4,84,80,75,70,67,64,74,67,51,29.98,29.93,29.89,6,6,4,15,6,,0.00,2,Thunderstorm,50
2011-5-5,84,80,75,68,65,63,74,63,51,29.95,29.90,29.83,6,6,6,10,5,,0.00,3,,291
2011-5-6,84,80,75,70,65,61,69,61,51,29.95,29.91,29.86,6,6,6,17,7,,0.00,1,,349
2011-5-7,82,78,75,68,67,64,78,64,58,29.95,29.91,29.86,6,6,6,20,7,,0.00,3,,97
2011-5-8,86,82,77,68,66,64,74,62,48,29.92,29.89,29.83,6,6,6,22,7,,0.00,2,,352
2011-5-9,86,82,77,70,66,63,78,62,48,29.92,29.85,29.80,6,6,6,16,7,,0.00,2,Rain,146
2011-5-10,86,80,75,70,66,63,74,61,48,29.86,29.83,29.80,6,6,6,17,6,,0.00,2,,69
2011-5-11,86,80,75,68,64,61,69,59,48,29.92,29.86,29.80,6,6,6,16,7,,0.00,5,,51
2011-5-12,84,80,75,68,65,61,69,59,48,29.92,29.88,29.83,6,6,6,10,5,,0.00,1,,193
2011-5-13,84,80,77,68,66,64,74,63,54,29.89,29.82,29.77,6,6,6,13,6,,0.00,2,Thunderstorm,156
2011-5-14,82,80,77,66,64,61,69,60,51,29.86,29.81,29.74,6,6,6,23,7,,0.00,2,Thunderstorm,122
2011-5-15,82,80,77,68,66,63,74,63,51,29.86,29.83,29.80,6,6,6,9,5,,0.00,2,Rain-Thunderstorm-Tornado,148
2011-5-16,84,80,77,66,64,61,69,59,51,29.86,29.83,29.80,6,6,6,16,5,,0.00,2,,249
2011-5-17,84,80,75,66,64,63,69,59,51,29.86,29.84,29.80,6,6,6,9,4,,0.00,1,,220
2011-5-18,84,80,75,66,63,61,69,58,45,29.95,29.89,29.86,6,6,6,7,4,,0.00,1,,157
2011-5-19,86,82,77,66,63,59,65,55,45,29.98,29.93,29.89,6,6,6,15,5,,0.00,1,,105
2011-5-20,84,80,77,68,65,61,69,58,51,29.95,29.91,29.86,6,6,6,14,6,,0.00,1,Thunderstorm,245
2011-5-21,86,82,77,70,67,64,74,64,51,29.92,29.89,29.83,6,6,6,14,5,,0.00,2,Thunderstorm,323
2011-5-22,80,78,77,68,67,64,74,67,61,29.95,29.91,29.86,6,6,6,8,4,,0.00,4,Thunderstorm,351
2011-5-23,86,80,75,72,67,66,78,65,58,29.95,29.91,29.86,6,6,6,16,7,,0.00,6,Rain-Thunderstorm,337
2011-5-24,84,80,75,72,68,66,74,68,58,29.92,29.88,29.86,6,6,6,16,6,,0.00,6,Rain,334
2011-5-25,84,80,75,70,68,64,73,66,58,29.92,29.88,29.83,6,6,6,16,6,,0.00,5,Thunderstorm,61
2011-5-26,84,80,75,72,68,66,78,66,58,29.95,29.91,29.86,6,6,6,20,7,,0.00,4,Rain-Thunderstorm,123
2011-5-27,86,82,78,70,68,66,74,62,55,29.98,29.89,29.83,6,6,6,22,7,,0.00,1,Thunderstorm,206
2011-5-28,86,82,78,72,67,64,70,61,51,29.89,29.85,29.80,6,6,6,23,8,,0.00,4,,71
2011-5-29,86,80,73,70,67,61,83,64,51,29.92,29.88,29.83,6,6,6,22,9,,0.00,6,Rain-Thunderstorm,81
2011-5-30,86,82,77,68,65,61,74,63,45,29.95,29.90,29.86,6,6,6,21,8,,0.00,6,Rain,31
2011-5-31,80,76,73,68,66,64,83,70,58,29.95,29.90,29.83,6,6,6,31,11,,0.00,7,Rain,19
2011-6-1,80,76,71,68,66,64,83,73,61,29.92,29.87,29.83,6,6,6,15,7,,0.00,7,Rain,323
2011-6-2,84,78,71,70,67,64,83,71,58,29.89,29.83,29.80,6,6,6,26,8,,0.00,6,Rain,42
2011-6-3,78,76,73,70,69,68,88,79,74,29.86,29.81,29.77,6,6,0,17,8,,0.00,6,Rain-Thunderstorm,119
2011-6-4,82,78,73,70,69,68,88,78,66,29.86,29.81,29.77,6,6,3,25,12,,0.00,6,Rain-Thunderstorm,102
2011-6-5,77,75,73,72,70,68,88,82,74,29.86,29.81,29.77,6,6,3,24,14,,0.00,7,Rain-Thunderstorm,109
2011-6-6,80,76,73,72,69,66,88,78,61,29.86,29.82,29.80,6,6,3,18,10,,0.00,6,Rain-Thunderstorm,107
2011-6-7,78,76,75,72,71,68,89,82,78,29.86,29.81,29.77,6,5,2,14,11,21,0.00,6,Rain-Thunderstorm,154
2011-6-8,82,78,75,73,71,70,89,78,66,29.89,29.86,29.83,6,6,1,13,5,,0.00,6,Rain-Thunderstorm,106
2011-6-9,84,80,77,73,71,68,83,72,66,29.92,29.87,29.83,6,6,6,13,8,,0.00,5,Thunderstorm,123
2011-6-10,84,81,78,72,72,70,78,72,66,29.92,29.87,29.83,6,6,6,16,12,,0.00,6,Thunderstorm,123
2011-6-11,86,83,80,72,70,70,74,65,58,29.89,29.87,29.83,6,6,6,23,14,,0.00,3,,116
2011-6-12,87,82,78,72,69,66,74,64,49,29.92,29.88,29.83,6,6,6,24,13,,0.00,3,,100
2011-6-13,86,82,77,72,68,64,74,64,48,29.95,29.91,29.86,6,6,6,22,8,,0.00,3,,49
2011-6-14,89,84,78,72,68,64,78,63,46,29.95,29.91,29.83,6,6,6,22,8,,0.00,3,,113
2011-6-15,86,82,77,72,69,66,74,64,55,29.92,29.89,29.86,6,6,6,23,7,,0.00,4,,105
2011-6-16,87,82,78,77,70,66,78,66,58,29.92,29.89,29.86,6,6,6,25,9,,0.00,5,Thunderstorm,76
2011-6-17,86,80,75,72,69,66,83,64,55,30.01,29.95,29.89,6,6,6,21,12,28,0.00,4,Rain-Thunderstorm,102
2011-6-18,87,79,71,68,66,63,83,57,43,30.01,29.98,29.92,6,6,6,23,10,,0.00,4,,73
2011-6-19,86,82,77,70,67,63,69,61,51,30.01,29.95,29.89,6,6,6,24,9,,0.00,5,Thunderstorm,77
2011-6-20,86,82,77,72,68,64,74,63,55,29.98,29.92,29.86,6,6,6,22,6,,0.00,4,Thunderstorm,87
2011-6-21,87,82,77,70,69,66,74,64,49,29.95,29.92,29.86,6,6,6,24,8,,0.00,4,Thunderstorm,88
2011-6-22,87,82,78,72,69,66,69,60,49,29.98,29.94,29.89,6,6,6,24,14,,0.00,3,Thunderstorm,109
2011-6-23,89,82,75,70,66,61,83,55,38,29.95,29.92,29.86,6,6,6,26,16,,0.00,2,Rain-Thunderstorm,105
2011-6-24,86,80,75,72,68,63,83,68,51,29.95,29.91,29.86,6,6,3,32,12,,0.00,6,Rain-Thunderstorm,88
2011-6-25,87,82,77,72,68,66,78,61,49,29.98,29.91,29.86,6,6,6,22,14,,0.00,5,Rain-Thunderstorm,105
2011-6-26,86,82,78,72,68,66,74,63,55,29.98,29.93,29.89,6,6,6,23,14,,0.00,4,,112
2011-6-27,87,82,78,70,67,63,74,58,45,30.01,29.95,29.89,6,6,6,25,14,,0.00,5,Thunderstorm,108
2011-6-28,87,82,77,68,66,63,69,55,43,29.98,29.93,29.83,6,6,6,24,14,,0.00,4,,107
2011-6-29,87,82,78,68,66,64,65,55,51,29.95,29.93,29.89,6,6,6,20,15,,0.00,5,,103
2011-6-30,91,86,80,70,66,64,62,55,43,29.95,29.91,29.83,6,6,6,23,14,,0.00,4,Thunderstorm,103
2011-7-1,87,82,77,70,67,64,65,60,52,29.95,29.90,29.83,6,6,6,23,8,,0.00,2,,106
2011-7-2,87,82,78,72,67,63,70,62,54,29.95,29.88,29.83,6,6,6,23,7,,0.00,6,Thunderstorm,348
2011-7-3,86,82,77,72,69,66,83,68,58,29.89,29.85,29.80,6,6,6,20,6,,0.00,5,Rain-Thunderstorm,66
2011-7-4,84,78,73,72,70,68,83,77,58,29.92,29.87,29.83,6,5,1,24,8,,0.00,5,Rain-Thunderstorm,109
2011-7-5,82,78,75,72,70,68,89,75,69,29.92,29.89,29.86,6,6,4,20,8,,0.00,6,Rain-Thunderstorm,94
2011-7-6,86,82,78,70,69,66,74,67,58,29.95,29.92,29.89,6,6,6,24,13,,0.00,5,Rain-Thunderstorm,107
2011-7-7,87,82,78,70,68,64,74,61,46,29.95,29.90,29.86,6,6,6,34,15,,0.00,6,Rain-Thunderstorm,113
2011-7-8,87,82,77,72,70,68,83,68,55,29.92,29.89,29.86,6,6,5,22,11,,0.00,6,Rain-Thunderstorm,104
2011-7-9,87,82,78,72,68,66,70,61,52,29.95,29.90,29.86,6,6,6,24,13,,0.00,3,Thunderstorm,101
2011-7-10,87,82,77,68,66,63,74,58,48,29.95,29.91,29.89,6,6,6,28,13,,0.00,4,Rain-Thunderstorm,90
2011-7-11,87,84,80,72,68,64,66,59,51,29.98,29.93,29.89,6,6,6,22,15,,0.00,5,,106
2011-7-12,86,82,77,72,70,66,78,71,58,29.98,29.95,29.92,6,6,6,18,7,,0.00,4,Rain-Thunderstorm,342
2011-7-13,80,78,77,70,69,66,78,72,61,29.98,29.93,29.89,6,6,6,18,5,,0.00,6,Rain-Thunderstorm,66
2011-7-14,86,82,77,70,68,64,74,64,51,29.95,29.91,29.86,6,6,6,17,7,,0.00,5,,100
2011-7-15,84,80,77,70,68,66,78,66,58,29.95,29.91,29.86,6,6,6,20,7,,0.00,5,Rain-Thunderstorm,69
2011-7-16,86,82,77,70,68,66,74,65,58,29.98,29.93,29.89,6,6,6,21,11,,0.00,3,Rain,98
2011-7-17,86,82,77,70,67,64,74,62,55,29.98,29.95,29.89,6,6,6,22,6,,0.00,3,,38
2011-7-18,86,82,77,72,68,66,74,63,51,29.95,29.94,29.89,6,6,6,22,7,,0.00,3,Thunderstorm,60
2011-7-19,86,82,78,72,68,66,74,63,55,29.95,29.93,29.89,6,6,6,20,6,,0.00,4,Thunderstorm,33
2011-7-20,86,82,78,72,69,66,74,64,55,29.98,29.92,29.89,6,6,6,18,6,,0.00,4,Thunderstorm,104
2011-7-21,87,82,78,72,69,66,74,63,55,29.98,29.94,29.92,6,6,6,24,8,,0.00,3,,92
2011-7-22,87,82,78,72,68,66,69,61,55,29.98,29.94,29.89,6,6,6,24,9,,0.00,4,,58
2011-7-23,87,82,78,72,67,63,66,58,43,29.98,29.94,29.86,6,6,6,13,6,,0.00,3,Thunderstorm,294
2011-7-24,87,84,80,72,69,66,70,63,55,29.95,29.92,29.89,6,6,6,26,10,,0.00,3,Rain-Thunderstorm,106
2011-7-25,82,78,73,70,68,63,88,73,51,29.95,29.91,29.89,6,5,1,14,10,,0.00,5,Rain-Thunderstorm,34
2011-7-26,86,82,77,70,68,66,74,62,55,29.92,29.87,29.83,6,6,6,24,11,,0.00,5,Thunderstorm,97
2011-7-27,86,82,77,70,68,64,70,63,51,29.92,29.88,29.83,6,6,6,23,8,,0.00,4,,60
2011-7-28,87,82,78,72,68,66,74,63,52,29.95,29.90,29.86,6,6,6,22,9,,0.00,3,Rain-Thunderstorm,11
2011-7-29,89,83,77,70,68,66,78,65,49,29.92,29.89,29.83,6,6,6,24,8,,0.00,5,Rain-Thunderstorm,69
2011-7-30,84,80,75,70,68,66,78,69,58,29.92,29.90,29.86,6,6,1,28,9,32,0.00,6,Rain-Thunderstorm,58
2011-7-31,86,80,75,72,68,66,78,66,55,29.95,29.91,29.86,6,6,6,21,7,,0.00,6,Rain-Thunderstorm,344
2011-8-1,86,82,77,72,69,66,74,66,58,29.95,29.92,29.89,6,6,6,20,6,,0.00,4,Thunderstorm,360
2011-8-2,87,82,77,70,68,66,74,66,52,29.92,29.88,29.83,6,6,6,12,5,,0.00,3,Thunderstorm,305
2011-8-3,87,82,78,70,69,66,74,64,51,29.86,29.82,29.77,6,6,6,8,5,,0.00,1,,129
2011-8-4,87,81,75,73,70,68,83,68,55,29.89,29.82,29.77,6,6,2,18,5,,0.00,4,Rain-Thunderstorm,158
2011-8-5,86,80,75,73,72,68,83,72,66,29.98,29.91,29.86,6,6,1,18,11,,0.00,5,Rain-Thunderstorm,109
2011-8-6,87,82,77,72,70,64,78,64,51,29.98,29.94,29.89,6,6,6,25,14,,0.00,6,Rain-Thunderstorm,112
2011-8-7,89,83,77,70,68,64,78,61,46,29.98,29.93,29.89,6,6,6,24,8,,0.00,2,Thunderstorm,51
2011-8-8,87,82,77,72,69,66,78,63,55,29.95,29.92,29.89,6,6,6,22,11,,0.00,2,Thunderstorm,101
2011-8-9,87,82,77,72,70,68,78,68,55,29.95,29.92,29.86,6,6,6,22,8,,0.00,2,Thunderstorm,110
2011-8-10,86,82,78,73,71,70,79,69,58,29.95,29.89,29.83,6,6,6,20,8,,0.00,2,Thunderstorm,109
2011-8-11,87,82,78,72,70,68,74,65,58,29.92,29.88,29.83,6,6,6,22,7,,0.00,2,,98
2011-8-12,86,80,73,72,69,68,83,68,58,29.98,29.91,29.86,6,6,6,23,9,,0.00,4,Rain-Thunderstorm,104
2011-8-13,87,81,75,72,67,63,74,63,51,29.95,29.92,29.89,6,6,6,22,7,,0.00,4,,313
2011-8-14,87,82,78,72,70,68,78,69,55,29.92,29.88,29.83,6,6,6,13,4,,0.00,5,Thunderstorm,163
2011-8-15,86,82,78,72,69,66,78,65,58,29.95,29.89,29.86,6,6,6,17,7,,0.00,5,Thunderstorm,137
2011-8-16,87,82,78,72,68,63,74,62,51,29.98,29.92,29.89,6,6,6,21,6,,0.00,3,Thunderstorm,37
2011-8-17,89,84,78,72,67,63,74,61,46,29.95,29.90,29.86,6,6,6,28,9,,0.00,3,Thunderstorm,112
2011-8-18,84,80,75,70,67,36,83,67,21,29.92,29.88,29.83,6,6,2,26,11,34,0.00,6,Rain-Thunderstorm,91
2011-8-19,86,82,77,72,69,66,74,64,58,29.92,29.86,29.80,6,6,6,22,12,,0.00,5,Rain-Thunderstorm,103
2011-8-20,86,82,77,72,69,66,74,66,58,29.95,29.88,29.83,6,6,6,22,8,,0.00,4,Rain-Thunderstorm,75
2011-8-21,86,82,77,72,70,68,74,66,55,29.95,29.90,29.86,6,6,6,17,5,,0.00,4,Thunderstorm,340
2011-8-22,86,82,78,72,69,66,74,64,51,29.92,29.84,29.80,6,6,6,9,5,,0.00,2,Thunderstorm,101
2011-8-23,87,84,80,72,70,66,74,64,55,29.83,29.75,29.71,6,6,6,14,6,,0.00,2,Thunderstorm,203
2011-8-24,86,82,78,72,70,66,70,65,55,29.77,29.72,29.68,6,6,6,12,5,,0.00,5,Thunderstorm,208
2011-8-25,86,82,78,72,70,68,74,67,55,29.92,29.84,29.74,6,6,6,9,6,,0.00,6,Rain-Thunderstorm,131
2011-8-26,84,80,77,72,70,68,83,71,62,29.98,29.93,29.89,6,6,6,18,7,,0.00,6,Rain-Thunderstorm,114
2011-8-27,84,80,77,72,69,68,78,69,62,29.95,29.90,29.83,6,6,6,15,5,,0.00,6,Rain-Thunderstorm,99
2011-8-28,84,81,78,70,68,64,74,64,55,29.92,29.86,29.83,6,6,6,15,8,,0.00,6,Rain-Thunderstorm,102
2011-8-29,84,78,71,72,68,64,88,77,58,29.95,29.91,29.86,6,6,2,21,10,29,0.00,5,Rain-Thunderstorm,107
2011-8-30,87,81,75,72,69,64,78,64,58,29.92,29.89,29.83,6,6,6,22,9,,0.00,5,Thunderstorm,93
2011-8-31,87,82,77,73,69,64,74,63,55,29.95,29.90,29.86,6,6,6,22,9,,0.00,3,Rain-Thunderstorm,88
2011-9-1,86,82,78,72,69,66,74,65,58,29.95,29.91,29.86,6,6,6,20,7,,0.00,3,Thunderstorm,108
2011-9-2,86,82,78,72,69,66,78,67,58,29.95,29.91,29.86,6,6,6,16,5,,0.00,6,Thunderstorm,338
2011-9-3,86,82,77,72,70,66,74,66,58,29.92,29.90,29.86,6,6,6,18,7,,0.00,3,Thunderstorm,109
2011-9-4,86,82,78,72,69,64,70,64,58,29.95,29.90,29.86,6,6,6,18,7,,0.00,1,Thunderstorm,118
2011-9-5,86,82,78,72,69,64,74,65,54,29.92,29.90,29.86,6,6,6,15,6,,0.00,1,Thunderstorm,94
2011-9-6,86,82,78,72,70,66,74,66,58,29.95,29.90,29.86,6,6,6,15,6,,0.00,1,Thunderstorm,91
2011-9-7,87,82,78,72,70,68,74,66,55,29.95,29.90,29.86,6,6,6,15,6,,0.00,3,Thunderstorm,53
2011-9-8,86,82,78,72,69,68,74,66,55,29.95,29.91,29.86,6,6,5,13,4,,0.00,5,Rain-Thunderstorm,7
2011-9-9,86,80,73,73,69,66,83,70,55,29.95,29.89,29.83,6,6,0,15,7,,0.00,5,Rain-Thunderstorm,12
2011-9-10,86,82,77,72,69,66,78,67,55,29.95,29.89,29.86,6,6,6,20,8,,0.00,6,Thunderstorm,111
2011-9-11,87,82,78,72,67,63,74,61,48,29.98,29.91,29.83,6,6,6,16,6,,0.00,6,Thunderstorm,322
2011-9-12,86,82,77,72,70,68,83,69,55,29.98,29.93,29.86,6,6,2,12,4,,0.00,3,Rain-Thunderstorm,183
2011-9-13,86,82,77,72,70,68,78,69,58,29.98,29.87,29.83,6,6,6,14,5,,0.00,4,Rain-Thunderstorm,321
2011-9-14,86,82,77,72,69,66,78,65,55,29.86,29.83,29.80,6,6,6,9,4,,0.00,2,Thunderstorm,136
2011-9-15,87,82,78,73,69,66,78,62,55,29.95,29.90,29.86,6,6,6,15,8,,0.00,4,Thunderstorm,117
2011-9-16,84,80,77,70,66,61,74,59,45,30.01,29.93,29.83,6,6,5,26,8,33,0.00,5,Rain-Thunderstorm,68
2011-9-17,86,82,77,72,68,63,74,62,45,29.95,29.91,29.86,6,6,6,13,6,,0.00,6,Thunderstorm,352
2011-9-18,86,82,77,70,68,66,74,62,51,29.95,29.89,29.83,6,6,6,9,4,,0.00,6,Thunderstorm,261
2011-9-19,84,81,78,70,68,66,70,64,55,29.89,29.85,29.80,6,6,6,10,6,,0.00,5,Rain-Thunderstorm,103
2011-9-20,86,82,77,70,68,66,74,63,51,29.92,29.86,29.80,6,6,6,17,10,,0.00,5,Thunderstorm,115
2011-9-21,86,82,78,72,68,66,70,62,55,29.95,29.90,29.86,6,6,6,20,8,,0.00,4,Thunderstorm,92
2011-9-22,87,82,78,72,69,66,74,62,51,29.98,29.92,29.86,6,6,6,18,6,,0.00,5,Rain-Thunderstorm,20
2011-9-23,89,84,78,72,69,66,70,63,52,29.95,29.91,29.86,6,6,6,21,6,,0.00,4,Rain-Thunderstorm,10
2011-9-24,87,84,80,72,69,66,66,61,52,29.95,29.91,29.86,6,6,6,23,11,,0.00,4,Thunderstorm,84
2011-9-25,86,82,77,70,68,64,74,66,55,29.92,29.90,29.86,6,6,6,17,6,,0.00,4,Rain-Thunderstorm,360
2011-9-26,87,82,78,70,67,64,70,61,51,29.95,29.89,29.86,6,6,6,20,7,,0.00,4,Thunderstorm,51
2011-9-27,87,82,77,77,70,66,74,66,58,29.92,29.89,29.86,6,6,6,18,7,,0.00,5,Thunderstorm,88
2011-9-28,91,84,78,77,72,66,79,69,55,29.89,29.85,29.83,6,6,5,10,3,,0.00,4,Rain-Thunderstorm,21
2011-9-29,89,84,80,73,70,66,74,65,58,29.86,29.81,29.77,6,6,6,8,4,,0.00,5,Thunderstorm,116
2011-9-30,89,83,77,75,71,68,78,70,58,29.86,29.81,29.77,6,6,6,7,3,,0.00,5,Thunderstorm,214
2011-10-1,91,86,80,77,74,68,89,69,55,29.89,29.85,29.80,6,6,6,8,3,,0.00,6,Thunderstorm,136
2011-10-2,91,84,78,75,70,66,70,62,52,29.95,29.89,29.83,6,6,6,20,6,,0.00,6,Thunderstorm,87
2011-10-3,89,84,80,73,70,68,74,63,49,29.95,29.91,29.86,6,6,6,22,8,,0.00,6,Thunderstorm,47
2011-10-4,87,80,73,75,68,64,84,66,51,29.98,29.92,29.86,6,6,0,15,6,,0.00,5,Rain-Thunderstorm,337
2011-10-5,86,82,78,72,69,66,78,66,55,29.92,29.87,29.83,6,6,6,12,5,,0.00,5,Rain-Thunderstorm,26
2011-10-6,86,82,77,70,68,64,74,64,51,29.89,29.85,29.80,6,6,6,13,6,,0.00,4,Thunderstorm,304
2011-10-7,86,82,78,72,68,66,70,65,58,29.86,29.83,29.80,6,6,6,18,6,,0.00,4,Thunderstorm,58
2011-10-8,84,81,78,70,68,66,70,65,55,29.86,29.81,29.74,6,6,6,17,7,,0.00,5,Rain-Thunderstorm,106
2011-10-9,80,76,73,72,69,66,88,77,61,29.86,29.80,29.74,6,6,1,20,8,,0.00,6,Rain-Thunderstorm,96
2011-10-10,89,83,77,75,71,66,79,69,58,29.83,29.79,29.74,6,6,6,14,7,,0.00,5,Thunderstorm,305
2011-10-11,89,82,75,77,72,68,79,70,55,29.89,29.82,29.77,6,6,6,13,4,,0.00,4,Thunderstorm,233
2011-10-12,91,86,80,79,75,72,94,73,55,29.89,29.84,29.80,6,6,6,13,5,,0.00,2,Thunderstorm,158
2011-10-13,89,84,78,79,73,68,79,71,55,29.89,29.82,29.77,6,6,6,10,5,,0.00,4,Rain-Thunderstorm,130
2011-10-14,87,79,71,77,71,66,83,71,58,29.86,29.83,29.77,6,6,0,21,7,,0.00,6,Rain-Thunderstorm,102
2011-10-15,84,78,73,77,73,70,100,83,66,29.92,29.86,29.80,6,4,0,16,8,,0.00,6,Rain-Thunderstorm,95
2011-10-16,87,84,80,75,73,72,79,71,62,29.95,29.87,29.83,6,6,6,21,12,,0.00,2,,111
2011-10-17,89,84,78,77,72,68,89,69,52,29.89,29.84,29.80,6,6,6,15,6,,0.00,4,,98
2011-10-18,89,81,73,79,72,68,83,69,58,29.89,29.85,29.80,6,3,0,14,8,,0.00,4,Rain,100
2011-10-19,89,84,78,79,74,70,89,72,62,29.95,29.89,29.83,6,6,6,10,7,,0.00,4,Rain,104
2011-10-20,89,84,80,77,73,68,84,69,62,29.95,29.90,29.86,6,6,6,16,6,,0.00,2,,120
2011-10-21,89,83,77,79,72,66,89,72,62,29.92,29.87,29.80,6,6,6,12,5,,0.00,2,Thunderstorm,321
2011-10-22,89,84,78,75,73,70,89,75,59,29.86,29.80,29.77,6,6,6,9,4,,0.00,3,Rain-Thunderstorm,218
2011-10-23,89,84,78,77,74,72,89,73,59,29.89,29.84,29.77,6,6,6,13,6,,0.00,2,Thunderstorm,100
2011-10-24,89,84,80,79,75,70,84,71,62,29.95,29.90,29.86,6,6,6,12,6,,0.00,4,Thunderstorm,115
2011-10-25,89,84,80,77,73,72,79,70,55,29.92,29.87,29.80,6,6,6,9,4,,0.00,5,Thunderstorm,308
2011-10-26,91,86,80,81,75,73,79,71,55,29.86,29.81,29.74,6,6,6,10,5,,0.00,6,Thunderstorm,277
2011-10-27,89,84,78,82,75,66,100,75,65,29.89,29.81,29.74,6,6,6,26,9,,0.00,5,Rain-Thunderstorm,65
2011-10-28,87,82,77,75,72,68,84,70,58,29.89,29.84,29.77,6,6,6,21,8,,0.00,6,Rain-Thunderstorm,82
2011-10-29,89,84,80,81,75,72,89,77,70,29.92,29.86,29.80,6,6,6,21,8,,0.00,6,Rain-Thunderstorm,111
2011-10-30,91,84,77,79,75,73,100,75,66,29.95,29.88,29.83,6,6,6,20,10,,0.00,5,Rain-Thunderstorm,99
2011-10-31,89,84,80,77,74,72,89,74,58,29.92,29.89,29.83,6,6,6,17,7,,0.00,3,Rain-Thunderstorm,43
2011-11-1,89,84,78,79,73,72,89,73,55,29.92,29.88,29.83,6,6,6,17,6,,0.00,1,,331
2011-11-2,89,83,77,81,75,70,89,76,62,29.95,29.88,29.83,6,6,6,8,3,,0.00,2,,286
2011-11-3,89,84,78,79,75,73,89,78,62,29.92,29.86,29.80,6,6,6,8,5,,0.00,2,Rain-Thunderstorm,293
2011-11-4,89,84,78,77,74,72,89,75,55,29.89,29.84,29.80,6,6,6,38,6,,0.00,2,Thunderstorm,271
2011-11-5,89,84,78,77,73,70,83,71,58,29.86,29.83,29.77,6,6,6,9,4,,0.00,2,,264
2011-11-6,89,83,77,77,73,70,84,71,55,29.89,29.85,29.80,6,6,6,9,5,,0.00,2,,349
2011-11-7,89,84,78,77,74,70,83,72,62,29.92,29.85,29.80,6,6,6,63,9,,0.00,1,,301
2011-11-8,87,82,77,75,72,68,83,71,58,29.89,29.84,29.80,6,6,6,9,7,,0.00,1,,308
2011-11-9,87,82,77,75,72,70,84,70,58,29.89,29.84,29.80,6,6,6,13,7,,0.00,2,Rain,343
2011-11-10,87,82,78,73,72,70,79,72,62,29.89,29.84,29.80,6,6,6,13,8,,0.00,3,Rain,343
2011-11-11,87,82,77,79,72,68,84,71,62,29.92,29.87,29.83,6,6,6,13,8,,0.00,1,,22
2011-11-12,89,84,78,75,71,66,83,65,49,29.98,29.92,29.89,6,6,6,9,5,,0.00,5,,50
2011-11-13,89,83,77,79,72,66,89,70,52,29.98,29.92,29.89,6,6,6,25,6,,0.00,6,Thunderstorm,356
2011-11-14,91,86,80,79,75,72,89,75,59,29.95,29.91,29.86,6,6,6,76,12,,0.00,1,Thunderstorm,15
2011-11-15,87,82,78,79,74,72,89,74,62,29.95,29.89,29.83,6,6,6,31,8,,0.00,2,Thunderstorm,322
2011-11-16,86,82,78,79,75,70,89,79,66,29.92,29.88,29.86,6,6,4,25,4,,0.00,3,Rain-Thunderstorm,9
2011-11-17,87,82,77,75,72,68,89,71,58,29.95,29.88,29.83,6,6,6,9,5,,0.00,1,Thunderstorm,307
2011-11-18,89,84,78,79,74,70,89,74,62,29.95,29.89,29.83,6,6,6,38,7,,0.00,2,Thunderstorm,26
2011-11-19,87,82,78,79,72,68,89,71,55,29.98,29.93,29.89,6,6,6,12,5,,0.00,1,Thunderstorm,313
2011-11-20,89,83,77,75,71,64,89,68,52,30.01,29.94,29.86,6,6,6,9,3,,0.00,1,,307
2011-11-21,89,83,77,77,68,63,100,62,45,30.01,29.94,29.86,6,6,6,8,4,,0.00,1,Thunderstorm,212
2011-11-22,87,82,77,72,67,63,69,60,48,30.01,29.94,29.89,6,6,6,9,5,,0.00,1,,16
2011-11-23,89,83,77,72,67,61,78,60,38,30.01,29.95,29.89,6,6,6,14,5,,0.00,1,,25
2011-11-24,87,82,77,70,66,61,74,59,43,29.98,29.95,29.89,6,6,6,9,6,,0.00,1,,306
2011-11-25,89,83,77,72,66,61,74,60,46,29.98,29.93,29.89,6,6,6,8,4,,0.00,4,,291
2011-11-26,87,80,73,70,67,63,88,62,49,29.95,29.88,29.83,6,6,6,8,3,,0.00,2,,272
2011-11-27,87,82,77,72,70,66,83,66,55,29.95,29.85,29.80,6,6,6,8,4,,0.00,1,,280
2011-11-28,87,82,77,72,70,68,78,67,52,29.86,29.82,29.77,6,6,6,8,4,,0.00,1,,277
2011-11-29,87,82,77,72,69,63,74,66,55,29.89,29.83,29.80,6,6,6,10,6,,0.00,2,,319
2011-11-30,86,80,75,70,66,63,69,61,51,29.89,29.85,29.80,6,6,6,9,6,,0.00,1,,330
2011-12-1,86,80,75,84,68,63,100,69,51,29.95,29.92,29.86,6,6,6,13,6,,0.00,3,Rain,351
2011-12-2,86,80,73,72,69,66,88,70,55,30.01,29.94,29.89,6,6,6,10,7,,0.00,3,Rain,355
2011-12-3,84,78,73,72,69,64,94,73,58,30.01,29.94,29.89,6,6,6,16,7,,0.00,4,Rain,330
2011-12-4,86,80,73,72,69,64,88,68,55,29.95,29.88,29.83,6,6,6,8,4,,0.00,1,,297
2011-12-5,86,82,77,73,70,68,89,69,58,29.92,29.86,29.80,6,6,6,7,4,,0.00,1,,259
2011-12-6,86,80,75,72,69,66,83,69,58,29.92,29.86,29.80,6,6,6,8,3,,0.00,2,,261
2011-12-7,86,80,75,73,71,70,89,73,58,29.95,29.88,29.83,6,6,6,6,3,,0.00,3,,270
2011-12-8,86,80,73,73,71,68,94,76,58,29.95,29.90,29.86,6,6,6,13,5,,0.00,2,Rain-Thunderstorm,326
2011-12-9,89,81,73,72,70,66,94,70,55,29.95,29.91,29.86,6,6,6,12,5,,0.00,2,,329
2011-12-10,87,80,73,73,70,66,94,71,55,29.95,29.89,29.83,6,6,6,8,5,,0.00,2,,332
2011-12-11,86,80,73,73,71,68,94,73,58,29.92,29.87,29.83,6,6,6,10,3,,0.00,2,,279
2011-12-12,89,81,73,75,73,70,94,76,59,29.95,29.89,29.83,6,6,6,63,6,,0.00,4,Thunderstorm,345
2011-12-13,89,81,73,73,71,66,94,72,55,29.95,29.91,29.86,6,6,6,12,5,,0.00,3,,238
2011-12-14,87,82,77,75,71,68,84,74,58,29.95,29.90,29.86,6,6,6,8,3,,0.00,3,Rain,309
2011-12-15,86,82,77,72,70,68,83,71,58,29.95,29.90,29.86,6,6,6,12,5,,0.00,4,,319
2011-12-16,87,80,73,72,69,68,94,70,55,29.98,29.94,29.89,6,6,6,9,4,,0.00,4,,287
2011-12-17,86,80,75,73,70,68,94,71,58,30.01,29.97,29.92,6,6,6,14,5,,0.00,4,,292
2011-12-18,86,82,77,70,67,66,74,65,55,30.04,29.97,29.92,6,6,6,8,5,,0.00,5,,314
2011-12-19,87,81,75,70,68,66,83,66,55,30.01,29.97,29.92,6,6,6,15,5,,0.00,3,,299
2011-12-20,86,82,77,70,66,59,74,62,40,30.04,29.97,29.92,6,6,6,17,6,,0.00,4,,359
2011-12-21,86,82,77,70,68,66,78,64,55,30.01,29.95,29.89,6,6,6,22,10,,0.00,3,,86
2011-12-22,89,82,75,72,68,64,78,64,48,30.01,29.96,29.89,6,6,6,18,8,,0.00,2,,75
2011-12-23,87,82,77,73,69,64,83,66,52,30.01,29.97,29.92,6,6,6,12,6,,0.00,2,,306
2011-12-24,87,82,77,73,69,64,78,66,48,30.04,29.99,29.92,6,6,6,16,5,,0.00,1,,327
2011-12-25,87,78,69,73,67,61,94,65,48,30.04,30.00,29.95,6,6,6,9,6,,0.00,1,,318
2011-12-26,87,81,75,73,68,64,74,66,55,30.04,29.99,29.95,6,6,6,18,6,,0.00,1,,356
2011-12-27,86,80,75,73,68,64,83,67,55,30.06,30.01,29.95,6,6,6,16,7,,0.00,2,,16
2011-12-28,87,81,75,72,66,63,73,61,51,30.06,30.00,29.89,6,6,6,15,6,,0.00,2,,323
2011-12-29,84,80,77,73,68,64,79,68,58,30.04,29.99,29.95,6,6,6,23,6,,0.00,2,Rain,326
2011-12-30,89,83,77,75,68,64,79,65,52,30.04,30.00,29.92,6,6,6,18,7,,0.00,2,,312
2011-12-31,89,83,77,73,68,64,83,65,49,30.06,30.00,29.92,6,6,6,22,9,,0.00,2,,38